Time;durP1;ratioP1;P1;durP2;ratioP2;P2;SDS_P1;SDS_P2;PMS_P1;PMS_P2;Temp;Humidity;BMP_temperature;BMP_pressure;BME280_temperature;BME280_humidity;BME280_pressure;Samples;Min_cycle;Max_cycle;Signal;HPM_P1;HPM_P2
2023/10/31 00:01:45;;;;;;;202.85;54.97;;;8.70;99.90;;;;;;5131776;27;20027;-80
2023/10/31 00:04:11;;;;;;;148.98;50.50;;;8.80;99.90;;;;;;5131054;27;20026;-80
2023/10/31 00:06:37;;;;;;;102.25;44.35;;;8.70;99.90;;;;;;5131538;27;20034;-80
2023/10/31 00:09:03;;;;;;;64.55;36.13;;;8.70;99.90;;;;;;5112576;27;20031;-80
2023/10/31 00:11:28;;;;;;;141.23;45.50;;;8.70;99.90;;;;;;5131463;27;20368;-79
2023/10/31 00:13:54;;;;;;;113.53;42.17;;;8.70;99.90;;;;;;5130397;27;20323;-79
2023/10/31 00:16:20;;;;;;;152.77;47.03;;;8.70;99.90;;;;;;5113160;27;20171;-80
2023/10/31 00:18:45;;;;;;;157.63;45.97;;;8.70;99.90;;;;;;5131842;27;20496;-81
2023/10/31 00:21:11;;;;;;;74.63;35.35;;;8.70;99.90;;;;;;5130717;27;20110;-81
2023/10/31 00:23:47;;;;;;;100.05;39.08;;;8.80;99.90;;;;;;5130631;27;20027;-80
2023/10/31 00:26:13;;;;;;;208.38;46.38;;;8.80;99.90;;;;;;5130938;27;20915;-81
2023/10/31 00:28:39;;;;;;;164.43;44.40;;;8.80;99.90;;;;;;5131265;27;20051;-81
2023/10/31 00:31:06;;;;;;;82.10;34.22;;;8.80;99.90;;;;;;5130808;27;20062;-81
2023/10/31 00:33:32;;;;;;;141.10;42.42;;;8.70;99.90;;;;;;5130648;27;20043;-81
2023/10/31 00:35:58;;;;;;;130.02;40.40;;;8.80;99.90;;;;;;5130963;28;20372;-80
2023/10/31 00:38:23;;;;;;;151.50;42.38;;;8.90;99.90;;;;;;5112474;28;20050;-80
2023/10/31 00:40:49;;;;;;;100.43;36.90;;;8.80;99.90;;;;;;5131349;28;20027;-80
2023/10/31 00:43:15;;;;;;;91.68;35.20;;;8.80;99.90;;;;;;5112064;28;20027;-80
2023/10/31 00:45:40;;;;;;;177.27;47.72;;;8.90;99.90;;;;;;5130831;28;20019;-81
2023/10/31 00:48:06;;;;;;;331.60;58.10;;;8.90;99.90;;;;;;5111695;28;20054;-80
2023/10/31 00:50:32;;;;;;;74.00;32.65;;;8.80;99.90;;;;;;5131292;28;20047;-80
2023/10/31 00:52:57;;;;;;;113.30;38.03;;;8.90;99.90;;;;;;5130187;28;20533;-82
2023/10/31 00:55:23;;;;;;;112.35;39.65;;;8.90;99.90;;;;;;5131234;28;20024;-81
2023/10/31 00:57:49;;;;;;;146.35;42.70;;;8.90;99.90;;;;;;5131443;28;20034;-80
2023/10/31 01:00:15;;;;;;;147.38;41.30;;;8.90;99.90;;;;;;5130314;28;20402;-81
2023/10/31 01:02:41;;;;;;;192.18;45.92;;;8.80;99.90;;;;;;5130440;28;20110;-80
2023/10/31 01:05:07;;;;;;;136.52;39.15;;;8.90;99.90;;;;;;5130434;28;20207;-81
2023/10/31 01:07:32;;;;;;;150.65;40.50;;;8.90;99.90;;;;;;5131525;28;20126;-81
2023/10/31 01:09:58;;;;;;;96.35;33.90;;;8.90;99.90;;;;;;5130366;28;20103;-80
2023/10/31 01:12:24;;;;;;;170.82;42.05;;;9.00;99.90;;;;;;5131215;28;20027;-81
2023/10/31 01:14:50;;;;;;;87.32;30.85;;;9.00;99.90;;;;;;5131018;28;20026;-81
2023/10/31 01:17:16;;;;;;;70.68;27.75;;;9.00;99.90;;;;;;5130579;28;20023;-81
2023/10/31 01:19:41;;;;;;;198.40;41.35;;;9.00;99.90;;;;;;5131245;28;20421;-81
2023/10/31 01:22:07;;;;;;;148.75;38.05;;;9.00;99.90;;;;;;5130977;28;20122;-80
2023/10/31 01:24:33;;;;;;;255.07;45.35;;;9.10;99.90;;;;;;5131354;28;20023;-81
2023/10/31 01:26:58;;;;;;;78.80;29.17;;;8.90;99.90;;;;;;5130803;28;20032;-81
2023/10/31 01:29:25;;;;;;;137.93;36.03;;;9.00;99.90;;;;;;5131287;28;20031;-80
2023/10/31 01:31:50;;;;;;;123.05;32.67;;;9.00;99.90;;;;;;5130922;28;20031;-80
2023/10/31 01:34:16;;;;;;;94.85;28.67;;;9.00;99.90;;;;;;5131393;27;20490;-81
2023/10/31 01:36:42;;;;;;;133.15;31.67;;;9.10;99.90;;;;;;5134738;27;20483;-80
2023/10/31 01:39:07;;;;;;;112.82;30.73;;;9.10;99.90;;;;;;5134218;27;20119;-80
2023/10/31 01:41:33;;;;;;;146.82;34.20;;;9.10;99.90;;;;;;5135023;27;20494;-80
2023/10/31 01:43:59;;;;;;;111.70;30.65;;;9.00;99.90;;;;;;5137567;27;20027;-79
2023/10/31 01:46:25;;;;;;;92.18;27.67;;;9.00;99.90;;;;;;5145815;27;20062;-80
2023/10/31 01:48:50;;;;;;;111.53;29.88;;;9.00;99.90;;;;;;5145265;27;20031;-80
2023/10/31 01:51:16;;;;;;;69.13;22.85;;;9.00;99.90;;;;;;5144454;27;20047;-80
2023/10/31 01:53:42;;;;;;;76.35;27.00;;;9.00;99.90;;;;;;5142687;27;20106;-79
2023/10/31 01:56:08;;;;;;;76.45;25.48;;;9.10;99.90;;;;;;5136020;27;20444;-80
2023/10/31 01:58:36;;;;;;;78.15;25.35;;;9.10;99.90;;;;;;5135104;27;20027;-81
2023/10/31 02:01:03;;;;;;;57.22;22.13;;;9.00;99.90;;;;;;5133786;27;20491;-81
2023/10/31 02:03:29;;;;;;;51.40;20.95;;;9.00;99.90;;;;;;5149136;27;20442;-80
2023/10/31 02:05:55;;;;;;;35.53;16.20;;;9.00;99.90;;;;;;5156718;27;20015;-80
2023/10/31 02:08:21;;;;;;;50.92;20.02;;;9.00;99.90;;;;;;5149283;27;20099;-81
2023/10/31 02:10:47;;;;;;;44.45;18.00;;;9.00;99.90;;;;;;5116393;27;20114;-80
2023/10/31 02:13:14;;;;;;;41.00;17.63;;;9.00;99.90;;;;;;5133943;27;20039;-80
2023/10/31 02:15:40;;;;;;;37.10;15.95;;;9.10;99.90;;;;;;5134174;27;20033;-80
2023/10/31 02:18:06;;;;;;;35.28;16.73;;;8.90;99.90;;;;;;5133538;27;20110;-81
2023/10/31 02:20:32;;;;;;;40.65;17.42;;;9.00;99.90;;;;;;5134390;27;20118;-80
2023/10/31 02:22:58;;;;;;;28.45;14.95;;;9.00;99.90;;;;;;5133567;27;20070;-81
2023/10/31 02:25:24;;;;;;;27.52;15.45;;;9.00;99.90;;;;;;5133959;27;20077;-80
2023/10/31 02:27:50;;;;;;;39.72;18.90;;;9.00;99.90;;;;;;5134402;27;20375;-80
2023/10/31 02:30:16;;;;;;;35.20;16.83;;;9.00;99.90;;;;;;5114605;27;20147;-80
2023/10/31 02:32:42;;;;;;;31.52;16.52;;;9.00;99.90;;;;;;5115493;27;20392;-80
2023/10/31 02:35:08;;;;;;;30.17;16.15;;;9.10;99.90;;;;;;5133312;27;20019;-80
2023/10/31 02:37:34;;;;;;;26.10;13.40;;;9.20;99.90;;;;;;5133594;27;20355;-80
2023/10/31 02:40:00;;;;;;;32.20;15.30;;;9.20;99.90;;;;;;5133359;27;20051;-80
2023/10/31 02:42:26;;;;;;;29.42;15.95;;;9.30;99.90;;;;;;5133744;27;20379;-80
2023/10/31 02:44:52;;;;;;;34.58;17.10;;;9.30;99.90;;;;;;5133793;27;20481;-80
2023/10/31 02:47:19;;;;;;;28.75;16.33;;;9.30;99.90;;;;;;5132703;27;20114;-80
2023/10/31 02:49:44;;;;;;;35.78;20.42;;;9.30;99.90;;;;;;5133414;27;20107;-80
2023/10/31 02:52:10;;;;;;;35.05;19.90;;;9.40;99.90;;;;;;5133761;27;20126;-80
2023/10/31 02:54:36;;;;;;;33.67;20.73;;;9.30;99.90;;;;;;5133545;27;20484;-80
2023/10/31 02:57:02;;;;;;;35.70;21.05;;;9.30;99.90;;;;;;5133372;27;20382;-80
2023/10/31 02:59:28;;;;;;;35.80;21.20;;;9.40;99.90;;;;;;5133367;27;20026;-80
2023/10/31 03:01:56;;;;;;;41.33;22.33;;;9.40;99.90;;;;;;5133439;27;20375;-80
2023/10/31 03:04:21;;;;;;;37.15;22.35;;;9.40;99.90;;;;;;5132780;27;20262;-80
2023/10/31 03:06:47;;;;;;;40.45;22.88;;;9.40;99.90;;;;;;5133462;27;20146;-80
2023/10/31 03:09:13;;;;;;;38.22;21.17;;;9.30;99.90;;;;;;5132500;27;20015;-80
2023/10/31 03:11:38;;;;;;;32.15;18.70;;;9.30;99.90;;;;;;5132867;27;20035;-80
2023/10/31 03:14:04;;;;;;;35.72;18.77;;;9.40;99.90;;;;;;5132167;27;20031;-80
2023/10/31 03:16:30;;;;;;;31.40;15.98;;;9.30;99.90;;;;;;5132914;27;20107;-79
2023/10/31 03:18:56;;;;;;;22.40;13.55;;;9.30;99.90;;;;;;5133325;27;20039;-79
2023/10/31 03:21:22;;;;;;;20.50;12.13;;;9.30;99.90;;;;;;5132042;27;20437;-79
2023/10/31 03:23:49;;;;;;;22.23;14.40;;;9.30;99.90;;;;;;5133074;27;20065;-80
2023/10/31 03:26:19;;;;;;;28.55;15.85;;;9.40;99.90;;;;;;5131994;27;20051;-80
2023/10/31 03:28:45;;;;;;;30.48;15.75;;;9.40;99.90;;;;;;5132753;27;20068;-81
2023/10/31 03:31:12;;;;;;;23.85;13.93;;;9.40;99.90;;;;;;5131906;27;20037;-81
2023/10/31 03:33:38;;;;;;;23.08;12.90;;;9.40;99.90;;;;;;5132644;27;20118;-80
2023/10/31 03:36:05;;;;;;;22.67;13.38;;;9.50;99.90;;;;;;5132467;27;20071;-80
2023/10/31 03:38:31;;;;;;;19.70;11.32;;;9.40;99.90;;;;;;5132914;27;20072;-81
2023/10/31 03:40:57;;;;;;;21.95;12.10;;;9.40;99.90;;;;;;5132631;27;20020;-80
2023/10/31 03:43:23;;;;;;;22.23;13.40;;;9.30;99.90;;;;;;5131751;27;20076;-80
2023/10/31 03:45:49;;;;;;;18.52;12.18;;;9.40;99.90;;;;;;5132488;27;20027;-80
2023/10/31 03:48:16;;;;;;;22.55;11.95;;;9.30;99.90;;;;;;5113472;27;20062;-80
2023/10/31 03:50:42;;;;;;;19.70;10.85;;;9.30;99.90;;;;;;5131509;27;20051;-80
2023/10/31 03:53:08;;;;;;;18.85;10.63;;;9.30;99.90;;;;;;5131663;27;20114;-80
2023/10/31 03:55:34;;;;;;;14.95;8.88;;;9.30;99.90;;;;;;5113660;27;20054;-80
2023/10/31 03:58:00;;;;;;;18.90;10.55;;;9.50;99.90;;;;;;5132319;27;20102;-80
2023/10/31 04:00:25;;;;;;;19.33;9.63;;;9.50;99.90;;;;;;5132029;27;20499;-80
2023/10/31 04:02:51;;;;;;;13.40;8.73;;;9.40;99.90;;;;;;5113615;27;20054;-80
2023/10/31 04:05:18;;;;;;;15.00;8.55;;;9.40;99.90;;;;;;5132013;27;20436;-80
2023/10/31 04:07:45;;;;;;;17.30;9.13;;;9.50;99.90;;;;;;5132095;27;20023;-81
2023/10/31 04:10:11;;;;;;;15.30;9.00;;;9.40;99.90;;;;;;5131522;27;20047;-81
2023/10/31 04:12:37;;;;;;;13.68;9.02;;;9.50;99.90;;;;;;5131884;27;20019;-81
2023/10/31 04:15:03;;;;;;;16.17;10.48;;;9.50;99.90;;;;;;5131510;27;20439;-80
2023/10/31 04:17:29;;;;;;;15.20;10.38;;;9.50;99.90;;;;;;5131721;27;20098;-80
2023/10/31 04:19:55;;;;;;;17.92;10.80;;;9.60;99.90;;;;;;5131625;27;20059;-80
2023/10/31 04:22:20;;;;;;;22.60;12.35;;;9.60;99.90;;;;;;5130975;27;20102;-80
2023/10/31 04:24:46;;;;;;;26.60;12.95;;;9.50;99.90;;;;;;5131747;27;20055;-80
2023/10/31 04:27:12;;;;;;;24.45;13.43;;;9.50;99.90;;;;;;5131520;27;20041;-80
2023/10/31 04:29:38;;;;;;;26.10;14.02;;;9.60;99.90;;;;;;5131684;27;20072;-80
2023/10/31 04:32:04;;;;;;;26.83;14.38;;;9.50;99.90;;;;;;5131133;27;20023;-80
2023/10/31 04:34:29;;;;;;;23.83;12.80;;;9.60;99.90;;;;;;5112766;28;20035;-80
2023/10/31 04:36:55;;;;;;;28.08;14.52;;;9.60;99.90;;;;;;5131462;28;20028;-80
2023/10/31 04:39:21;;;;;;;28.70;14.93;;;9.70;99.90;;;;;;5145623;28;20023;-80
2023/10/31 04:41:46;;;;;;;26.63;15.65;;;9.60;99.90;;;;;;5153338;28;20023;-79
2023/10/31 04:44:12;;;;;;;27.67;15.40;;;9.80;99.90;;;;;;5139584;28;20306;-80
2023/10/31 04:46:38;;;;;;;30.60;15.80;;;9.70;99.90;;;;;;5132889;28;20047;-80
2023/10/31 04:49:04;;;;;;;32.75;17.05;;;9.80;99.90;;;;;;5132646;28;20034;-80
2023/10/31 04:51:34;;;;;;;30.55;15.75;;;9.80;99.90;;;;;;5131248;27;20047;-80
2023/10/31 04:54:00;;;;;;;32.95;17.92;;;9.80;99.90;;;;;;5131483;28;20144;-79
2023/10/31 04:56:26;;;;;;;31.08;17.23;;;9.80;99.90;;;;;;5131285;28;20110;-81
2023/10/31 04:58:51;;;;;;;35.35;16.60;;;9.90;99.90;;;;;;5131518;28;20030;-81
2023/10/31 05:01:19;;;;;;;35.63;17.98;;;9.90;99.90;;;;;;5130596;28;20440;-80
2023/10/31 05:03:45;;;;;;;30.00;16.75;;;9.90;99.90;;;;;;5131651;28;20336;-80
2023/10/31 05:06:11;;;;;;;39.03;18.42;;;9.90;99.90;;;;;;5130705;28;20020;-80
2023/10/31 05:08:37;;;;;;;37.63;18.08;;;9.90;99.90;;;;;;5131342;27;20039;-80
2023/10/31 05:11:03;;;;;;;35.95;18.65;;;9.90;99.90;;;;;;5135185;27;20030;-79
2023/10/31 05:13:29;;;;;;;29.38;16.55;;;9.90;99.90;;;;;;5134802;27;20031;-80
2023/10/31 05:15:55;;;;;;;33.30;18.23;;;9.80;99.90;;;;;;5135684;27;20103;-80
2023/10/31 05:18:21;;;;;;;29.90;16.48;;;9.90;99.90;;;;;;5135048;27;20049;-79
2023/10/31 05:20:46;;;;;;;29.88;17.13;;;9.90;99.90;;;;;;5135901;27;20023;-80
2023/10/31 05:23:12;;;;;;;32.13;16.23;;;9.80;99.90;;;;;;5116363;27;20435;-80
2023/10/31 05:25:38;;;;;;;32.15;17.00;;;9.80;99.90;;;;;;5116666;27;20029;-80
2023/10/31 05:28:04;;;;;;;32.47;16.55;;;9.90;99.90;;;;;;5116727;27;20106;-80
2023/10/31 05:30:30;;;;;;;29.17;14.30;;;9.80;99.90;;;;;;5116094;27;20053;-80
2023/10/31 05:32:56;;;;;;;28.40;13.98;;;9.80;99.90;;;;;;5134983;27;20542;-80
2023/10/31 05:35:22;;;;;;;24.40;14.13;;;9.80;99.90;;;;;;5134488;27;20106;-80
2023/10/31 05:37:48;;;;;;;23.23;13.23;;;9.90;99.90;;;;;;5134653;27;20075;-80
2023/10/31 05:40:15;;;;;;;24.67;13.27;;;9.80;99.90;;;;;;5134721;27;20023;-80
2023/10/31 05:42:42;;;;;;;23.60;12.93;;;9.80;99.90;;;;;;5134804;27;20019;-80
2023/10/31 05:45:09;;;;;;;23.33;13.45;;;9.90;99.90;;;;;;5116052;27;20140;-80
2023/10/31 05:47:34;;;;;;;24.98;14.45;;;10.00;99.90;;;;;;5135030;27;20472;-80
2023/10/31 05:50:00;;;;;;;28.33;15.93;;;9.90;99.90;;;;;;5134498;27;20030;-80
2023/10/31 05:52:29;;;;;;;22.73;14.68;;;9.90;99.90;;;;;;5136158;27;20027;-80
2023/10/31 05:54:55;;;;;;;26.73;15.10;;;9.90;99.90;;;;;;5139027;27;20107;-79
2023/10/31 05:57:21;;;;;;;24.00;14.15;;;9.90;99.90;;;;;;5139548;27;20023;-80
2023/10/31 05:59:47;;;;;;;25.75;14.32;;;9.90;99.90;;;;;;5140398;27;20034;-80
2023/10/31 06:02:13;;;;;;;24.02;14.25;;;9.90;99.90;;;;;;5138136;27;20091;-80
2023/10/31 06:04:39;;;;;;;26.35;15.60;;;9.90;99.90;;;;;;5138366;27;20023;-80
2023/10/31 06:07:06;;;;;;;24.83;14.48;;;9.80;99.90;;;;;;5139019;27;20345;-80
2023/10/31 06:09:33;;;;;;;21.50;14.18;;;9.80;99.90;;;;;;5135440;27;20091;-81
2023/10/31 06:11:59;;;;;;;22.92;13.73;;;9.90;99.90;;;;;;5134454;27;20356;-80
2023/10/31 06:14:25;;;;;;;24.33;14.57;;;9.80;99.90;;;;;;5133917;27;20455;-80
2023/10/31 06:16:51;;;;;;;21.90;13.25;;;9.80;99.90;;;;;;5133866;27;20027;-79
2023/10/31 06:19:17;;;;;;;20.17;12.52;;;9.80;99.90;;;;;;5133634;27;20038;-79
2023/10/31 06:21:43;;;;;;;21.65;12.98;;;9.80;99.90;;;;;;5134394;27;20478;-80
2023/10/31 06:24:09;;;;;;;19.00;12.73;;;9.80;99.90;;;;;;5125109;27;20034;-80
2023/10/31 06:26:35;;;;;;;23.48;12.80;;;9.80;99.90;;;;;;5135208;27;20126;-80
2023/10/31 06:29:00;;;;;;;21.83;13.60;;;9.80;99.90;;;;;;5135738;27;20106;-80
2023/10/31 06:31:26;;;;;;;24.23;13.55;;;9.80;99.90;;;;;;5134311;27;20063;-80
2023/10/31 06:33:52;;;;;;;23.70;13.63;;;9.70;99.90;;;;;;5115743;27;20027;-80
2023/10/31 06:36:18;;;;;;;21.83;13.73;;;9.70;99.90;;;;;;5133399;27;20023;-80
2023/10/31 06:38:43;;;;;;;25.70;15.27;;;9.70;99.90;;;;;;5133734;27;20023;-80
2023/10/31 06:41:09;;;;;;;24.60;14.95;;;9.70;99.90;;;;;;5115241;27;20027;-80
2023/10/31 06:43:35;;;;;;;27.92;15.45;;;9.80;99.90;;;;;;5133257;27;20034;-80
2023/10/31 06:46:03;;;;;;;25.98;15.90;;;9.70;99.90;;;;;;5114970;27;20110;-80
2023/10/31 06:48:28;;;;;;;28.10;15.93;;;9.70;99.90;;;;;;5132853;27;20024;-80
2023/10/31 06:50:54;;;;;;;27.38;16.27;;;9.80;99.90;;;;;;5133371;27;20531;-79
2023/10/31 06:53:20;;;;;;;25.70;16.08;;;9.80;99.90;;;;;;5133184;27;20038;-80
2023/10/31 06:55:45;;;;;;;24.55;15.38;;;9.80;99.90;;;;;;5133678;27;20027;-80
2023/10/31 06:58:11;;;;;;;27.38;16.30;;;9.70;99.90;;;;;;5133686;27;20076;-80
2023/10/31 07:00:39;;;;;;;26.10;14.70;;;9.70;99.90;;;;;;5133311;27;20161;-80
2023/10/31 07:03:09;;;;;;;24.15;15.40;;;9.70;99.90;;;;;;5133510;27;20031;-80
2023/10/31 07:05:36;;;;;;;24.35;14.48;;;9.80;99.90;;;;;;5132354;27;20500;-80
2023/10/31 07:08:03;;;;;;;22.27;14.57;;;9.70;99.90;;;;;;5133408;27;20019;-81
2023/10/31 07:10:28;;;;;;;24.58;14.73;;;9.70;99.90;;;;;;5114239;27;20076;-81
2023/10/31 07:12:54;;;;;;;23.73;15.63;;;9.80;99.90;;;;;;5133105;27;20039;-81
2023/10/31 07:15:21;;;;;;;19.83;13.20;;;9.70;99.90;;;;;;5132525;27;20107;-81
2023/10/31 07:17:47;;;;;;;24.00;15.48;;;9.70;99.90;;;;;;5133170;27;20031;-81
2023/10/31 07:20:13;;;;;;;26.58;16.13;;;9.80;99.90;;;;;;5133063;27;20088;-80
2023/10/31 07:22:39;;;;;;;22.58;14.68;;;9.70;99.90;;;;;;5114016;27;20440;-80
2023/10/31 07:25:06;;;;;;;28.95;16.30;;;9.80;99.90;;;;;;5132723;27;20027;-81
2023/10/31 07:27:32;;;;;;;25.55;15.25;;;9.80;99.90;;;;;;5132089;27;20023;-81
2023/10/31 07:29:58;;;;;;;24.95;15.40;;;9.80;99.90;;;;;;5132504;27;20027;-81
2023/10/31 07:32:24;;;;;;;27.83;15.98;;;9.80;99.90;;;;;;5131836;27;20102;-81
2023/10/31 07:34:49;;;;;;;27.88;16.08;;;9.80;99.90;;;;;;5113667;27;20118;-80
2023/10/31 07:37:15;;;;;;;25.95;15.60;;;9.70;99.90;;;;;;5132310;27;20465;-80
2023/10/31 07:39:42;;;;;;;24.00;15.18;;;9.80;99.90;;;;;;5132285;27;20030;-83
2023/10/31 07:42:08;;;;;;;22.55;13.98;;;9.70;99.90;;;;;;5132494;27;20210;-82
2023/10/31 07:44:34;;;;;;;26.77;15.07;;;9.80;99.90;;;;;;5113295;27;20038;-80
2023/10/31 07:47:00;;;;;;;20.63;13.85;;;9.70;99.90;;;;;;5132445;27;20030;-81
2023/10/31 07:49:25;;;;;;;20.20;13.20;;;9.70;99.90;;;;;;5131691;27;20439;-81
2023/10/31 07:51:51;;;;;;;20.00;12.00;;;9.70;99.90;;;;;;5132406;27;20089;-81
2023/10/31 07:54:17;;;;;;;18.42;12.13;;;9.70;99.90;;;;;;5131774;27;20171;-80
2023/10/31 07:56:43;;;;;;;19.67;11.77;;;9.70;99.90;;;;;;5114153;27;20488;-81
2023/10/31 07:59:09;;;;;;;14.93;9.77;;;9.60;99.90;;;;;;5131975;27;20024;-81
2023/10/31 08:01:35;;;;;;;12.05;9.10;;;9.60;99.90;;;;;;5131658;27;20023;-80
2023/10/31 08:04:01;;;;;;;12.63;8.95;;;9.60;99.90;;;;;;5132087;27;20448;-81
2023/10/31 08:06:26;;;;;;;10.93;8.70;;;9.70;99.90;;;;;;5131213;27;20027;-81
2023/10/31 08:08:52;;;;;;;12.00;9.10;;;9.60;99.90;;;;;;5131963;27;20485;-81
2023/10/31 08:11:18;;;;;;;14.93;9.30;;;9.70;99.90;;;;;;5131363;27;20531;-80
2023/10/31 08:13:44;;;;;;;11.20;8.20;;;9.70;99.90;;;;;;5113455;27;20053;-82
2023/10/31 08:16:10;;;;;;;14.55;8.60;;;9.80;99.90;;;;;;5132094;27;20023;-81
2023/10/31 08:18:36;;;;;;;14.77;8.52;;;9.80;99.90;;;;;;5131328;27;20127;-82
2023/10/31 08:21:03;;;;;;;11.98;7.65;;;9.80;99.90;;;;;;5132058;27;20477;-81
2023/10/31 08:23:29;;;;;;;11.60;7.28;;;9.80;99.90;;;;;;5131791;27;20041;-82
2023/10/31 08:25:55;;;;;;;9.50;7.00;;;9.80;99.90;;;;;;5132026;27;20094;-81
2023/10/31 08:28:21;;;;;;;14.20;7.95;;;9.80;99.90;;;;;;5131032;27;20027;-80
2023/10/31 08:30:47;;;;;;;12.80;7.55;;;9.90;99.90;;;;;;5131713;27;20079;-81
2023/10/31 08:33:14;;;;;;;9.05;6.82;;;9.80;99.90;;;;;;5131765;27;20096;-82
2023/10/31 08:35:40;;;;;;;7.55;6.30;;;9.90;99.90;;;;;;5131325;27;20090;-82
2023/10/31 08:38:05;;;;;;;9.48;6.40;;;9.80;99.90;;;;;;5139425;28;20058;-80
2023/10/31 08:40:31;;;;;;;12.20;6.65;;;9.90;99.90;;;;;;5130901;28;20523;-81
2023/10/31 08:42:57;;;;;;;9.98;6.13;;;9.90;99.90;;;;;;5131830;28;20429;-81
2023/10/31 08:45:23;;;;;;;8.10;5.80;;;9.90;99.90;;;;;;5115072;27;20027;-82
2023/10/31 08:47:50;;;;;;;8.63;5.80;;;9.80;99.90;;;;;;5117257;27;20147;-82
2023/10/31 08:50:15;;;;;;;8.10;5.30;;;9.90;99.90;;;;;;5135692;27;20055;-81
2023/10/31 08:52:41;;;;;;;8.82;5.63;;;9.90;99.90;;;;;;5134754;27;20034;-80
2023/10/31 08:55:07;;;;;;;6.50;5.50;;;9.90;99.90;;;;;;5135482;27;20074;-82
2023/10/31 08:57:33;;;;;;;10.90;6.03;;;9.80;99.90;;;;;;5135373;27;20019;-82
2023/10/31 09:00:00;;;;;;;7.97;5.78;;;9.80;99.90;;;;;;5135406;27;20020;-81
2023/10/31 09:02:26;;;;;;;7.05;5.53;;;9.80;99.90;;;;;;5135079;27;20080;-81
2023/10/31 09:04:51;;;;;;;10.05;5.70;;;9.90;99.90;;;;;;5136016;27;20115;-82
2023/10/31 09:07:17;;;;;;;8.00;6.10;;;9.80;99.90;;;;;;5135093;27;20466;-82
2023/10/31 09:09:43;;;;;;;8.07;6.32;;;9.90;99.90;;;;;;5134983;27;20034;-81
2023/10/31 09:12:09;;;;;;;7.20;5.30;;;9.90;99.90;;;;;;5135884;27;20027;-81
2023/10/31 09:14:35;;;;;;;6.68;4.78;;;9.90;99.90;;;;;;5134619;27;20035;-81
2023/10/31 09:17:01;;;;;;;8.10;5.05;;;10.00;99.90;;;;;;5135555;27;20393;-82
2023/10/31 09:19:27;;;;;;;7.00;4.75;;;10.00;99.90;;;;;;5134679;27;20034;-80
2023/10/31 09:21:53;;;;;;;8.20;5.35;;;10.10;99.90;;;;;;5135374;27;20023;-80
2023/10/31 09:24:18;;;;;;;5.72;4.07;;;10.10;99.90;;;;;;5135427;27;20106;-81
2023/10/31 09:26:44;;;;;;;7.75;4.15;;;10.10;99.90;;;;;;5135019;27;20463;-79
2023/10/31 09:29:13;;;;;;;6.10;4.57;;;10.10;99.90;;;;;;5135426;27;20023;-81
2023/10/31 09:31:39;;;;;;;4.55;4.07;;;10.20;99.90;;;;;;5116085;27;20091;-81
2023/10/31 09:34:04;;;;;;;5.93;4.15;;;10.20;99.90;;;;;;5135395;27;20035;-82
2023/10/31 09:36:36;;;;;;;6.05;3.80;;;10.30;99.90;;;;;;5116101;27;20363;-81
2023/10/31 09:39:03;;;;;;;6.15;3.95;;;10.30;99.90;;;;;;5134844;27;20034;-83
2023/10/31 09:41:30;;;;;;;7.13;5.57;;;10.40;99.90;;;;;;5134404;27;20035;-81
2023/10/31 09:43:56;;;;;;;12.77;11.43;;;10.40;99.90;;;;;;5134484;27;20023;-82
2023/10/31 09:46:21;;;;;;;6.00;4.90;;;10.40;99.90;;;;;;5134319;27;20024;-81
2023/10/31 09:48:49;;;;;;;3.97;3.30;;;10.50;99.90;;;;;;5134103;27;20034;-82
2023/10/31 09:51:15;;;;;;;5.32;3.80;;;10.50;99.90;;;;;;5134675;27;20050;-82
2023/10/31 09:53:44;;;;;;;4.00;3.03;;;10.50;99.90;;;;;;5133260;27;20023;-82
2023/10/31 09:56:10;;;;;;;4.40;3.17;;;10.50;99.90;;;;;;5134379;27;20030;-82
2023/10/31 09:58:36;;;;;;;5.70;3.10;;;10.50;99.90;;;;;;5139271;27;20047;-82
2023/10/31 10:01:02;;;;;;;4.43;3.47;;;10.50;99.90;;;;;;5134502;27;20087;-82
2023/10/31 10:03:29;;;;;;;5.50;3.15;;;10.50;99.90;;;;;;5134160;27;20045;-81
2023/10/31 10:05:55;;;;;;;5.22;2.58;;;10.60;99.90;;;;;;5152266;27;20031;-80
2023/10/31 10:08:21;;;;;;;4.57;3.30;;;10.60;99.90;;;;;;5134771;27;20156;-80
2023/10/31 10:10:49;;;;;;;4.53;3.03;;;10.60;99.90;;;;;;5133241;27;20019;-81
2023/10/31 10:13:18;;;;;;;4.40;2.55;;;10.60;99.90;;;;;;5134478;27;20031;-81
2023/10/31 10:15:53;;;;;;;2.13;1.92;;;10.70;99.90;;;;;;5133715;27;20027;-81
2023/10/31 10:18:29;;;;;;;3.42;2.65;;;10.80;99.90;;;;;;5134198;27;20027;-81
2023/10/31 10:21:00;;;;;;;3.13;2.75;;;10.80;99.90;;;;;;5134168;27;20034;-81
2023/10/31 10:23:27;;;;;;;4.28;2.85;;;10.90;99.90;;;;;;5133894;27;20107;-81
2023/10/31 10:25:54;;;;;;;4.18;2.88;;;10.90;99.90;;;;;;5133978;27;20023;-81
2023/10/31 10:28:20;;;;;;;3.92;2.90;;;11.00;99.90;;;;;;5115731;27;20422;-82
2023/10/31 10:30:47;;;;;;;3.35;2.97;;;11.00;99.90;;;;;;5134906;27;20114;-81
2023/10/31 10:33:16;;;;;;;4.88;2.80;;;11.00;99.90;;;;;;5135563;27;20035;-80
2023/10/31 10:35:43;;;;;;;3.00;2.70;;;10.90;99.90;;;;;;5136696;27;20102;-80
2023/10/31 10:38:15;;;;;;;5.05;3.15;;;10.90;99.90;;;;;;5136399;27;20123;-80
2023/10/31 10:40:42;;;;;;;4.97;3.17;;;10.90;99.90;;;;;;5135652;27;20181;-80
2023/10/31 10:43:22;;;;;;;4.07;3.00;;;10.90;99.90;;;;;;5136128;27;20023;-80
2023/10/31 10:45:55;;;;;;;3.40;2.88;;;10.90;99.90;;;;;;5133842;27;20427;-80
2023/10/31 10:48:22;;;;;;;4.03;2.72;;;10.80;99.90;;;;;;5134867;27;20432;-80
2023/10/31 10:51:01;;;;;;;4.88;3.03;;;10.80;99.90;;;;;;5133102;27;20146;-80
2023/10/31 10:53:35;;;;;;;3.70;2.75;;;10.80;99.90;;;;;;5133176;27;20039;-81
2023/10/31 10:56:16;;;;;;;3.72;3.20;;;10.70;99.90;;;;;;5133856;27;20052;-81
2023/10/31 10:59:00;;;;;;;4.63;2.60;;;10.70;99.90;;;;;;5115272;27;20034;-80
2023/10/31 11:01:28;;;;;;;3.47;2.28;;;10.70;99.90;;;;;;5133360;27;20031;-80
2023/10/31 11:03:55;;;;;;;4.00;2.22;;;10.60;99.90;;;;;;5134054;27;20030;-80
2023/10/31 11:06:21;;;;;;;2.65;2.38;;;10.70;99.90;;;;;;5134068;27;20030;-81
2023/10/31 11:08:48;;;;;;;2.78;1.90;;;10.70;99.90;;;;;;5133302;27;20027;-81
2023/10/31 11:11:16;;;;;;;3.10;1.80;;;10.60;99.90;;;;;;5133204;27;20453;-81
2023/10/31 11:13:44;;;;;;;1.75;1.60;;;10.60;99.90;;;;;;5133237;27;20028;-80
2023/10/31 11:16:17;;;;;;;2.10;1.90;;;10.70;99.90;;;;;;5133689;27;20068;-80
2023/10/31 11:18:43;;;;;;;;;;;10.70;99.90;;;;;;5133080;27;20102;-82
2023/10/31 11:21:09;;;;;;;6.78;2.25;;;10.70;99.90;;;;;;5133694;27;20045;-81
2023/10/31 11:23:36;;;;;;;2.65;1.70;;;10.70;99.90;;;;;;5132458;27;20038;-78
2023/10/31 11:26:02;;;;;;;3.78;1.75;;;10.70;99.90;;;;;;5132806;27;20016;-80
2023/10/31 11:28:27;;;;;;;2.40;1.42;;;10.70;99.90;;;;;;5098388;27;20409;-80
2023/10/31 11:30:59;;;;;;;1.55;1.30;;;10.80;99.90;;;;;;5114118;27;20030;-81
2023/10/31 11:33:25;;;;;;;2.92;1.60;;;10.80;99.90;;;;;;5132564;27;20046;-79
2023/10/31 11:35:51;;;;;;;1.73;1.40;;;10.80;99.90;;;;;;5133010;27;20210;-80
2023/10/31 11:38:35;;;;;;;4.30;1.70;;;10.80;99.90;;;;;;5132998;27;20042;-80
2023/10/31 11:41:02;;;;;;;4.25;1.30;;;10.90;99.90;;;;;;5132985;27;20027;-80
2023/10/31 11:43:40;;;;;;;4.53;1.40;;;10.90;99.90;;;;;;5132694;27;20439;-80
2023/10/31 11:46:07;;;;;;;1.55;1.10;;;11.00;99.90;;;;;;5133230;27;20019;-80
2023/10/31 11:48:46;;;;;;;1.88;1.17;;;11.00;99.90;;;;;;5131193;27;20078;-81
2023/10/31 11:51:13;;;;;;;2.28;0.93;;;11.00;99.90;;;;;;5113889;27;20058;-80
2023/10/31 11:53:40;;;;;;;2.42;1.38;;;11.00;99.90;;;;;;5131417;27;20498;-81
2023/10/31 11:56:08;;;;;;;2.90;1.20;;;11.10;99.90;;;;;;5132549;27;20024;-81
2023/10/31 11:58:35;;;;;;;3.05;1.42;;;11.20;99.90;;;;;;5131258;27;20047;-81
2023/10/31 12:01:03;;;;;;;2.75;1.13;;;11.10;99.90;;;;;;5113794;27;20025;-81
2023/10/31 12:03:40;;;;;;;3.60;1.00;;;11.10;99.90;;;;;;5131994;27;20024;-80
2023/10/31 12:06:07;;;;;;;2.67;0.77;;;11.20;99.90;;;;;;5114446;27;20024;-81
2023/10/31 12:08:37;;;;;;;2.25;0.80;;;11.30;99.90;;;;;;5131508;27;20031;-82
2023/10/31 12:11:11;;;;;;;2.13;0.70;;;11.40;99.90;;;;;;5131489;27;20027;-81
2023/10/31 12:13:39;;;;;;;1.55;0.90;;;11.50;99.90;;;;;;5113243;27;20084;-80
2023/10/31 12:16:06;;;;;;;3.22;0.85;;;11.60;99.90;;;;;;5131743;27;20468;-80
2023/10/31 12:18:34;;;;;;;1.55;0.80;;;11.60;99.90;;;;;;5131225;27;20082;-81
2023/10/31 12:21:00;;;;;;;0.70;0.60;;;11.70;99.90;;;;;;5131894;27;20061;-79
2023/10/31 12:23:26;;;;;;;3.75;0.80;;;11.80;99.90;;;;;;5113418;27;20099;-80
2023/10/31 12:25:53;;;;;;;2.30;0.80;;;11.90;99.90;;;;;;5112382;28;20597;-80
2023/10/31 12:28:19;;;;;;;3.13;0.77;;;12.00;99.90;;;;;;5131780;27;20464;-80
2023/10/31 12:30:49;;;;;;;1.73;0.73;;;11.90;99.90;;;;;;5131202;27;20126;-79
2023/10/31 12:33:16;;;;;;;3.75;1.10;;;11.90;99.90;;;;;;5131434;27;20019;-79
2023/10/31 12:35:43;;;;;;;2.05;1.13;;;11.90;99.90;;;;;;5131094;27;20471;-80
2023/10/31 12:38:13;;;;;;;0.80;0.80;;;11.80;99.90;;;;;;5131585;27;20039;-80